Time;durP1;ratioP1;P1;durP2;ratioP2;P2;SDS_P1;SDS_P2;PMS_P1;PMS_P2;Temp;Humidity;BMP_temperature;BMP_pressure;BME280_temperature;BME280_humidity;BME280_pressure;Samples;Min_cycle;Max_cycle;Signal;HPM_P1;HPM_P2
2022/03/01 00:00:43;;;;;;;15.45;6.70;;;-0.30;99.90;;;-2.22;91.82;103222.91;4962388;28;20491;-76
2022/03/01 00:03:09;;;;;;;17.65;7.13;;;-0.30;99.90;;;-2.22;91.44;103229.78;4962882;28;20053;-76
2022/03/01 00:05:35;;;;;;;16.15;6.70;;;-0.40;99.90;;;-2.24;91.38;103231.41;4962804;28;20027;-77
2022/03/01 00:08:01;;;;;;;14.60;6.47;;;-0.40;99.90;;;-2.23;91.22;103231.44;4978381;28;20079;-75
2022/03/01 00:10:27;;;;;;;16.13;7.15;;;-0.40;99.90;;;-2.23;91.04;103235.72;4964552;28;20031;-75
2022/03/01 00:12:53;;;;;;;16.98;6.68;;;-0.40;99.90;;;-2.24;91.13;103221.06;4954017;28;20038;-76
2022/03/01 00:15:31;;;;;;;14.77;6.90;;;-0.40;99.90;;;-2.27;91.22;103230.44;4935200;28;20086;-78
2022/03/01 00:17:57;;;;;;;18.63;7.15;;;-0.40;99.90;;;-2.26;91.08;103228.72;4938672;28;20165;-77
2022/03/01 00:20:23;;;;;;;18.80;7.40;;;-0.40;99.90;;;-2.28;91.39;103223.50;4971734;28;20038;-75
2022/03/01 00:22:48;;;;;;;22.10;8.13;;;-0.40;99.90;;;-2.25;91.24;103222.75;4951236;28;20031;-77
2022/03/01 00:25:14;;;;;;;16.85;6.85;;;-0.40;99.90;;;-2.25;91.39;103230.47;4986273;28;22421;-75
2022/03/01 00:27:41;;;;;;;21.95;7.38;;;-0.40;99.90;;;-2.26;91.02;103223.56;4959141;28;20069;-76
2022/03/01 00:30:08;;;;;;;15.90;7.50;;;-0.40;99.90;;;-2.25;91.28;103224.44;4968203;28;20033;-76
2022/03/01 00:32:34;;;;;;;15.27;7.38;;;-0.40;99.90;;;-2.25;91.39;103220.16;4949430;28;20030;-77
2022/03/01 00:35:00;;;;;;;23.58;7.03;;;-0.40;99.90;;;-2.27;91.00;103217.53;4944010;28;20041;-76
2022/03/01 00:37:25;;;;;;;18.77;7.32;;;-0.40;99.90;;;-2.26;90.58;103223.56;4971952;28;20038;-76
2022/03/01 00:39:51;;;;;;;19.30;7.10;;;-0.40;99.90;;;-2.25;90.85;103224.44;4928071;28;20029;-76
2022/03/01 00:42:17;;;;;;;25.15;7.88;;;-0.40;99.90;;;-2.29;90.93;103223.41;4953661;28;22637;-75
2022/03/01 00:44:43;;;;;;;20.30;7.38;;;-0.40;99.90;;;-2.31;91.20;103215.63;4966342;28;20062;-75
2022/03/01 00:47:14;;;;;;;20.88;7.63;;;-0.40;99.90;;;-2.28;91.01;103212.28;4942559;28;20022;-76
2022/03/01 00:49:40;;;;;;;16.98;7.18;;;-0.40;99.90;;;-2.29;90.83;103213.09;4948715;28;20120;-76
2022/03/01 00:52:06;;;;;;;17.25;6.90;;;-0.40;99.90;;;-2.31;90.81;103202.72;4934780;28;20495;-76
2022/03/01 00:54:32;;;;;;;18.35;7.38;;;-0.40;99.90;;;-2.32;90.56;103205.22;4940207;28;20519;-76
2022/03/01 00:56:58;;;;;;;16.35;7.53;;;-0.40;99.90;;;-2.32;90.48;103207.81;4954609;28;20157;-76
2022/03/01 00:59:24;;;;;;;15.40;7.22;;;-0.50;99.90;;;-2.36;91.18;103198.16;4955080;28;20019;-76
2022/03/01 01:01:50;;;;;;;16.60;7.03;;;-0.50;99.90;;;-2.35;90.65;103199.94;4957032;28;20027;-74
2022/03/01 01:04:15;;;;;;;17.83;6.82;;;-0.50;99.90;;;-2.38;91.20;103194.59;4959567;28;20058;-76
2022/03/01 01:06:43;;;;;;;18.15;7.95;;;-0.50;99.90;;;-2.43;90.62;103186.66;4944663;28;20510;-74
2022/03/01 01:09:12;;;;;;;16.55;7.28;;;-0.50;99.90;;;-2.45;91.46;103190.84;4941091;28;20124;-74
2022/03/01 01:11:39;;;;;;;17.60;7.35;;;-0.60;99.90;;;-2.48;91.38;103176.13;4945155;28;20050;-75
2022/03/01 01:14:05;;;;;;;18.45;7.75;;;-0.60;99.90;;;-2.50;91.50;103176.88;4965172;28;20098;-75
2022/03/01 01:16:31;;;;;;;18.75;7.47;;;-0.60;99.90;;;-2.50;91.43;103184.63;4941285;28;20019;-74
2022/03/01 01:18:57;;;;;;;17.77;7.60;;;-0.60;99.90;;;-2.50;91.16;103176.88;4933536;28;20035;-76
2022/03/01 01:21:22;;;;;;;17.75;7.47;;;-0.10;99.90;;;-2.51;91.67;103177.66;4956302;28;20031;-75
2022/03/01 01:23:48;;;;;;;18.40;7.80;;;-0.60;99.90;;;-2.52;91.34;103171.63;4926135;28;20023;-77
2022/03/01 01:26:14;;;;;;;17.42;7.70;;;-0.60;99.90;;;-2.53;91.33;103169.88;4951435;28;20023;-74
2022/03/01 01:28:40;;;;;;;21.13;7.78;;;-0.60;99.90;;;-2.54;91.89;103159.47;4953031;28;20070;-74
2022/03/01 01:31:06;;;;;;;17.00;7.60;;;-0.60;99.90;;;-2.55;91.92;103155.13;4965582;28;20046;-74
2022/03/01 01:33:32;;;;;;;18.27;7.35;;;-0.60;99.90;;;-2.60;91.67;103157.50;4954933;28;20109;-75
2022/03/01 01:35:58;;;;;;;24.63;8.07;;;-0.70;99.90;;;-2.57;91.32;103154.16;4952272;28;20045;-74
2022/03/01 01:38:24;;;;;;;22.98;8.38;;;-0.70;99.90;;;-2.62;91.30;103151.38;4957734;28;20502;-73
2022/03/01 01:40:50;;;;;;;18.58;8.40;;;-0.70;99.90;;;-2.59;91.46;103158.38;4964604;28;20118;-74
2022/03/01 01:43:17;;;;;;;16.75;7.60;;;-0.70;99.90;;;-2.59;91.54;103148.06;4965215;28;20031;-74
2022/03/01 01:45:42;;;;;;;22.77;8.70;;;-0.60;99.90;;;-2.54;91.04;103151.75;4972427;28;20352;-73
2022/03/01 01:48:08;;;;;;;17.40;7.40;;;-0.60;99.90;;;-2.51;90.97;103152.75;4974611;28;20027;-74
2022/03/01 01:50:35;;;;;;;20.35;7.55;;;-0.60;99.90;;;-2.46;90.66;103140.09;4973324;28;20048;-74
2022/03/01 01:53:02;;;;;;;19.40;7.78;;;-0.60;99.90;;;-2.44;90.35;103146.19;4970442;28;20062;-74
2022/03/01 01:55:29;;;;;;;19.73;8.10;;;-0.50;99.90;;;-2.40;90.03;103145.50;4954765;28;20097;-74
2022/03/01 01:57:59;;;;;;;18.38;8.02;;;-0.50;99.90;;;-2.36;89.88;103154.28;4972678;28;20030;-73
2022/03/01 02:00:26;;;;;;;18.90;8.07;;;-0.50;99.90;;;-2.37;89.53;103142.19;4971150;28;20057;-74
2022/03/01 02:02:52;;;;;;;18.00;8.63;;;-0.50;99.90;;;-2.37;89.45;103140.50;4971060;28;20026;-74
2022/03/01 02:05:18;;;;;;;20.58;8.15;;;-0.50;99.90;;;-2.37;88.92;103148.25;4973211;28;20033;-73
2022/03/01 02:07:47;;;;;;;20.40;8.38;;;-0.40;99.90;;;-2.36;89.30;103136.22;4971329;28;20414;-74
2022/03/01 02:10:17;;;;;;;20.20;9.07;;;-0.50;99.90;;;-2.38;89.69;103138.72;4973169;28;20015;-73
2022/03/01 02:12:45;;;;;;;21.33;8.43;;;-0.50;99.90;;;-2.40;89.81;103150.66;4970978;28;20097;-74
2022/03/01 02:15:11;;;;;;;20.17;8.18;;;-0.50;99.90;;;-2.44;89.06;103137.56;4971982;28;20438;-73
2022/03/01 02:17:40;;;;;;;28.25;9.48;;;-0.50;99.90;;;-2.44;89.44;103153.94;4971174;28;20038;-73
2022/03/01 02:20:10;;;;;;;21.00;9.05;;;-0.50;99.90;;;-2.45;89.65;103134.09;4970957;28;20030;-73
2022/03/01 02:22:36;;;;;;;21.02;8.43;;;-0.60;99.90;;;-2.51;89.78;103137.28;4974747;28;20034;-73
2022/03/01 02:25:02;;;;;;;22.13;9.13;;;-0.60;99.90;;;-2.51;89.95;103133.81;4973110;28;20093;-73
2022/03/01 02:27:28;;;;;;;27.08;9.60;;;-0.60;99.90;;;-2.52;89.56;103130.34;4970968;28;20106;-73
2022/03/01 02:29:53;;;;;;;21.55;9.32;;;-0.60;99.90;;;-2.53;89.71;103127.69;4972426;28;20153;-74
2022/03/01 02:32:19;;;;;;;21.65;9.60;;;-0.60;99.90;;;-2.57;90.07;103134.44;4970986;28;20030;-73
2022/03/01 02:34:47;;;;;;;24.33;9.85;;;-0.70;99.90;;;-2.62;89.87;103133.31;4970561;28;20117;-74
2022/03/01 02:37:13;;;;;;;23.67;9.77;;;-0.70;99.90;;;-2.59;89.80;103119.66;4971674;28;20030;-73
2022/03/01 02:39:39;;;;;;;20.67;9.48;;;-0.80;99.90;;;-2.68;89.77;103130.44;4969500;28;20034;-73
2022/03/01 02:42:05;;;;;;;23.33;9.77;;;-0.80;99.90;;;-2.73;90.00;103122.50;4971834;28;20033;-73
2022/03/01 02:44:31;;;;;;;22.52;9.43;;;-0.90;99.90;;;-2.81;89.96;103125.53;4981012;28;20057;-73
2022/03/01 02:46:56;;;;;;;19.95;9.32;;;-1.00;99.90;;;-2.87;89.95;103121.00;4963426;28;20019;-74
2022/03/01 02:49:22;;;;;;;18.85;9.32;;;-1.00;99.90;;;-2.91;90.50;103126.81;4987788;28;20387;-73
2022/03/01 02:51:48;;;;;;;22.60;9.93;;;-1.10;99.90;;;-3.00;90.87;103128.94;4972332;28;20121;-73
2022/03/01 02:54:14;;;;;;;23.95;9.88;;;-1.20;99.90;;;-3.04;90.76;103124.47;4970755;28;20061;-73
2022/03/01 02:56:40;;;;;;;21.08;9.70;;;-1.20;99.90;;;-3.10;91.14;103127.63;4970840;28;20116;-74
2022/03/01 02:59:08;;;;;;;22.02;10.52;;;-1.20;99.90;;;-3.14;91.12;103117.97;4971847;28;20046;-74
2022/03/01 03:01:34;;;;;;;25.10;10.80;;;-1.30;99.90;;;-3.23;91.11;103115.84;4970968;28;20089;-73
2022/03/01 03:04:00;;;;;;;23.88;10.65;;;-1.30;99.90;;;-3.24;92.33;103124.41;4969765;28;20022;-73
2022/03/01 03:06:26;;;;;;;21.63;10.63;;;-1.40;99.90;;;-3.29;92.72;103115.53;4974506;28;20564;-73
2022/03/01 03:08:52;;;;;;;30.08;11.73;;;-1.40;99.90;;;-3.37;92.71;103119.44;4942402;28;20034;-73
2022/03/01 03:11:19;;;;;;;27.58;12.00;;;-1.40;99.90;;;-3.34;93.50;103115.31;4957109;28;20042;-74
2022/03/01 03:13:45;;;;;;;28.98;11.38;;;-1.50;99.90;;;-3.37;93.60;103115.19;4951097;28;22625;-73
2022/03/01 03:16:11;;;;;;;22.38;10.80;;;-1.50;99.90;;;-3.47;93.25;103112.09;4950369;28;20038;-73
2022/03/01 03:18:38;;;;;;;30.45;11.13;;;-1.50;99.90;;;-3.44;94.26;103104.50;4950751;28;20054;-73
2022/03/01 03:21:05;;;;;;;22.63;11.18;;;-1.60;99.90;;;-3.49;94.16;103101.69;4952572;28;20368;-73
2022/03/01 03:23:32;;;;;;;27.13;11.90;;;-1.60;99.90;;;-3.50;94.25;103092.19;4966472;28;20114;-73
2022/03/01 03:25:58;;;;;;;32.15;13.73;;;-1.60;99.90;;;-3.54;94.27;103091.16;4972176;28;20029;-73
2022/03/01 03:28:24;;;;;;;28.40;12.57;;;-1.70;99.90;;;-3.59;94.34;103089.16;4970092;28;20038;-74
2022/03/01 03:30:50;;;;;;;29.13;12.35;;;-1.70;99.90;;;-3.61;94.22;103090.78;4973461;28;20049;-73
2022/03/01 03:33:16;;;;;;;23.63;11.55;;;-1.70;99.90;;;-3.63;94.94;103089.81;4971893;28;20073;-73
2022/03/01 03:35:43;;;;;;;28.58;11.25;;;-1.70;99.90;;;-3.62;94.78;103091.59;4970182;28;20046;-74
2022/03/01 03:38:09;;;;;;;26.00;12.30;;;-1.70;99.90;;;-3.68;95.16;103094.75;4952056;28;20027;-73
2022/03/01 03:40:35;;;;;;;25.55;11.40;;;-1.70;99.90;;;-3.68;95.12;103092.16;4955175;28;20027;-74
2022/03/01 03:43:01;;;;;;;24.83;11.77;;;-1.70;99.90;;;-3.64;95.22;103090.63;4953677;28;20212;-73
2022/03/01 03:45:27;;;;;;;26.98;11.40;;;-1.70;99.90;;;-3.66;95.77;103082.81;4972220;28;20554;-73
2022/03/01 03:47:53;;;;;;;24.75;11.80;;;-1.70;99.90;;;-3.65;95.36;103086.28;4969308;28;20042;-74
2022/03/01 03:50:18;;;;;;;35.22;13.85;;;-1.70;99.90;;;-3.65;95.62;103082.03;4973066;28;20022;-73
2022/03/01 03:52:44;;;;;;;28.67;12.70;;;-1.70;99.90;;;-3.63;95.67;103076.94;4971784;28;20037;-73
2022/03/01 03:55:11;;;;;;;33.72;15.70;;;-1.70;99.90;;;-3.61;95.82;103083.06;4968999;28;20025;-73
2022/03/01 03:57:38;;;;;;;27.00;12.93;;;-1.70;99.90;;;-3.67;95.78;103086.22;4936680;28;20023;-73
2022/03/01 04:00:15;;;;;;;34.22;14.90;;;-1.70;99.90;;;-3.67;95.88;103077.59;4966505;28;20038;-73
2022/03/01 04:02:42;;;;;;;41.00;16.23;;;-1.70;99.90;;;-3.67;95.41;103068.19;4951509;28;20086;-73
2022/03/01 04:05:12;;;;;;;38.95;16.17;;;-1.80;99.90;;;-3.70;95.64;103075.75;4950333;28;20035;-73
2022/03/01 04:07:43;;;;;;;25.33;12.25;;;-1.80;99.90;;;-3.72;95.49;103072.22;4956658;28;20076;-74
2022/03/01 04:10:10;;;;;;;29.30;13.80;;;-1.80;99.90;;;-3.73;95.56;103066.19;4944373;28;20113;-73
2022/03/01 04:12:36;;;;;;;28.40;12.80;;;-1.80;99.90;;;-3.71;95.70;103058.56;4950934;28;22302;-73
2022/03/01 04:15:05;;;;;;;35.17;15.70;;;-1.80;99.90;;;-3.73;95.41;103065.31;4966676;28;20511;-73
2022/03/01 04:17:31;;;;;;;30.90;13.20;;;-1.80;99.90;;;-3.76;95.42;103070.28;4970852;28;20072;-73
2022/03/01 04:19:58;;;;;;;31.05;14.07;;;-1.90;99.90;;;-3.80;96.17;103058.06;4969734;28;20036;-73
2022/03/01 04:22:24;;;;;;;29.77;13.70;;;-1.90;99.90;;;-3.84;95.21;103066.47;4968905;28;20522;-73
2022/03/01 04:24:50;;;;;;;27.70;12.57;;;-1.90;99.90;;;-3.84;95.48;103058.75;4970442;28;20026;-73
2022/03/01 04:27:17;;;;;;;26.92;12.55;;;-1.90;99.90;;;-3.86;95.76;103060.38;4969790;28;20759;-73
2022/03/01 04:29:44;;;;;;;24.58;11.77;;;-1.90;99.90;;;-3.89;95.52;103052.47;4960812;28;20039;-73
2022/03/01 04:32:12;;;;;;;27.23;11.85;;;-1.90;99.90;;;-3.89;95.79;103057.63;4970107;28;20573;-73
2022/03/01 04:34:38;;;;;;;26.30;11.90;;;-1.90;99.90;;;-3.86;95.80;103055.22;4969868;28;20189;-73
2022/03/01 04:37:04;;;;;;;30.20;12.35;;;-1.90;99.90;;;-3.87;95.69;103050.88;4968693;28;20045;-73
2022/03/01 04:39:30;;;;;;;27.00;12.07;;;-1.90;99.90;;;-3.88;96.18;103046.53;4970460;28;20037;-73
2022/03/01 04:41:57;;;;;;;23.65;11.40;;;-1.90;99.90;;;-3.86;95.34;103045.81;4950463;28;20050;-73
2022/03/01 04:44:24;;;;;;;25.30;11.98;;;-1.90;99.90;;;-3.89;95.82;103040.47;4959170;28;20027;-73
2022/03/01 04:46:50;;;;;;;28.00;12.55;;;-1.90;99.90;;;-3.89;95.80;103047.31;4970323;28;20035;-73
2022/03/01 04:49:16;;;;;;;30.42;12.48;;;-2.00;99.90;;;-3.89;95.74;103044.75;4969145;28;20036;-73
2022/03/01 04:51:42;;;;;;;28.88;12.45;;;-2.00;99.90;;;-3.91;95.63;103039.53;4969891;28;26060;-73
2022/03/01 04:54:08;;;;;;;23.88;11.23;;;-2.00;99.90;;;-3.96;95.76;103049.59;4961314;28;20027;-73
2022/03/01 04:56:34;;;;;;;26.75;11.23;;;-2.00;99.90;;;-3.97;95.75;103040.13;4967900;28;20031;-73
2022/03/01 04:59:00;;;;;;;27.00;12.25;;;-2.10;99.90;;;-3.99;95.45;103043.44;4971438;28;20029;-73
2022/03/01 05:01:26;;;;;;;27.23;12.02;;;-2.10;99.90;;;-4.00;95.49;103049.34;4963318;28;20026;-73
2022/03/01 05:03:55;;;;;;;24.58;11.73;;;-2.10;99.90;;;-3.99;95.40;103048.56;4973686;28;20065;-73
2022/03/01 05:06:21;;;;;;;24.85;12.00;;;-2.10;99.90;;;-4.03;95.55;103049.22;4973292;28;20030;-73
2022/03/01 05:08:46;;;;;;;27.42;11.90;;;-2.10;99.90;;;-4.05;95.49;103048.25;4941103;28;20034;-73
2022/03/01 05:11:12;;;;;;;29.70;12.60;;;-2.10;99.90;;;-4.03;94.81;103050.09;4972884;28;20081;-73
2022/03/01 05:13:38;;;;;;;28.85;11.95;;;-2.20;99.90;;;-4.09;95.64;103054.94;4973129;28;20031;-73
2022/03/01 05:16:04;;;;;;;27.08;11.50;;;-2.20;99.90;;;-4.18;95.58;103055.34;4955405;28;20030;-73
2022/03/01 05:18:30;;;;;;;27.58;12.25;;;-2.20;99.90;;;-4.18;95.98;103047.63;4956371;28;20039;-73
2022/03/01 05:20:56;;;;;;;24.63;11.82;;;-2.30;99.90;;;-4.21;95.35;103049.16;4955638;28;20033;-73
2022/03/01 05:23:22;;;;;;;31.75;14.95;;;-2.30;99.90;;;-4.23;96.36;103056.81;4955368;28;20097;-73
2022/03/01 05:25:48;;;;;;;31.05;12.13;;;-2.30;99.90;;;-4.24;95.88;103056.72;4947218;28;20097;-73
2022/03/01 05:28:15;;;;;;;27.60;12.27;;;-2.40;99.90;;;-4.27;95.57;103059.16;4955442;28;20027;-73
2022/03/01 05:30:41;;;;;;;28.75;12.88;;;-2.40;99.90;;;-4.34;96.02;103057.94;4953118;28;20035;-73
2022/03/01 05:33:07;;;;;;;27.45;13.35;;;-2.50;99.90;;;-4.37;95.43;103063.78;4954418;28;20365;-73
2022/03/01 05:35:33;;;;;;;33.05;13.00;;;-2.50;99.90;;;-4.41;96.17;103066.13;4955844;28;20053;-73
2022/03/01 05:38:00;;;;;;;28.80;13.13;;;-2.60;99.90;;;-4.50;96.41;103071.69;4962260;28;20142;-73
2022/03/01 05:40:31;;;;;;;34.90;13.63;;;-2.60;99.90;;;-4.51;95.89;103064.78;4963182;28;20026;-73
2022/03/01 05:42:59;;;;;;;27.45;12.93;;;-2.60;99.90;;;-4.52;96.53;103063.00;4970783;28;20041;-73
2022/03/01 05:45:26;;;;;;;29.65;12.82;;;-2.60;99.90;;;-4.54;96.64;103057.75;4970319;28;20398;-73
2022/03/01 05:47:54;;;;;;;27.20;13.80;;;-2.70;99.90;;;-4.54;96.92;103065.47;4972549;28;20037;-73
2022/03/01 05:50:20;;;;;;;29.92;13.48;;;-2.60;99.90;;;-4.55;96.42;103062.84;4974163;28;20696;-73
2022/03/01 05:52:47;;;;;;;29.10;12.85;;;-2.60;99.90;;;-4.51;97.16;103061.28;4970373;28;20094;-73
2022/03/01 05:55:14;;;;;;;31.60;13.85;;;-2.60;99.90;;;-4.49;96.90;103062.25;4973105;28;20039;-73
2022/03/01 05:57:41;;;;;;;32.78;13.15;;;-2.60;99.90;;;-4.45;97.03;103064.19;4971580;28;20026;-73
2022/03/01 06:00:16;;;;;;;33.10;13.25;;;-2.60;99.90;;;-4.44;97.79;103061.72;4971537;28;20419;-73
2022/03/01 06:02:43;;;;;;;;;;;-2.60;99.90;;;-4.43;97.39;103063.47;4972024;28;20391;-73
2022/03/01 06:05:11;;;;;;;30.60;13.90;;;-2.50;99.90;;;-4.36;97.03;103063.00;4970847;28;19921;-73
2022/03/01 06:07:38;;;;;;;27.88;13.57;;;-2.50;99.90;;;-4.33;97.18;103065.72;4970869;28;20042;-73
2022/03/01 06:10:06;;;;;;;30.83;13.75;;;-2.40;99.90;;;-4.27;97.24;103069.44;4973366;28;20040;-73
2022/03/01 06:12:32;;;;;;;31.33;13.18;;;-2.40;99.90;;;-4.26;96.51;103069.50;4971089;28;20120;-73
2022/03/01 06:14:58;;;;;;;30.50;13.00;;;-2.40;99.90;;;-4.19;96.82;103070.69;4970856;28;20050;-73
2022/03/01 06:17:24;;;;;;;33.92;13.00;;;-2.40;99.90;;;-4.13;96.34;103065.88;4965435;28;20035;-73
2022/03/01 06:19:50;;;;;;;28.83;12.60;;;-2.30;99.90;;;-4.10;96.49;103063.47;4959172;28;20129;-73
2022/03/01 06:22:16;;;;;;;30.50;13.98;;;-2.30;99.90;;;-3.96;95.92;103062.47;4968184;28;20035;-73
2022/03/01 06:24:43;;;;;;;31.98;13.30;;;-2.30;99.90;;;-3.86;95.85;103066.41;4973712;28;20042;-73
2022/03/01 06:27:10;;;;;;;34.65;13.05;;;-2.30;99.90;;;-3.64;95.17;103064.88;4972681;28;20029;-73
2022/03/01 06:29:36;;;;;;;29.02;13.77;;;-2.10;99.90;;;-3.27;94.32;103061.50;4945142;28;20022;-73
2022/03/01 06:32:04;;;;;;;32.22;14.07;;;-2.00;99.90;;;-1.98;92.69;103057.88;4953235;28;20046;-73
2022/03/01 06:34:31;;;;;;;32.50;13.88;;;-1.60;99.90;;;-0.38;88.83;103056.38;4951229;28;20543;-73
2022/03/01 06:36:58;;;;;;;26.52;13.20;;;-1.20;99.90;;;-0.63;84.87;103057.16;4949680;28;20050;-73
2022/03/01 06:39:24;;;;;;;32.42;13.90;;;-0.90;99.90;;;0.18;82.29;103035.84;4971849;28;20081;-73
2022/03/01 06:41:53;;;;;;;32.53;13.43;;;-0.60;99.90;;;0.35;79.54;103041.59;4973335;28;20538;-73
2022/03/01 06:44:19;;;;;;;30.70;13.40;;;-0.30;99.90;;;0.36;77.93;103045.94;4970360;28;20030;-73
2022/03/01 06:46:45;;;;;;;25.20;12.68;;;-0.10;99.90;;;1.43;76.12;103044.03;4972018;28;20026;-73
2022/03/01 06:49:11;;;;;;;25.67;12.75;;;0.40;99.90;;;3.86;70.62;103034.03;4971277;28;20098;-73
2022/03/01 06:51:37;;;;;;;27.23;13.52;;;1.30;99.90;;;7.47;61.64;103034.44;4954269;28;20089;-73
2022/03/01 06:54:03;;;;;;;26.27;11.77;;;2.60;99.90;;;10.25;51.91;103038.16;4971315;28;20030;-73
2022/03/01 06:56:29;;;;;;;25.50;11.70;;;4.10;99.90;;;12.08;46.72;103059.75;4984549;28;20450;-73
2022/03/01 06:58:55;;;;;;;25.60;11.77;;;5.50;99.90;;;13.44;42.85;103098.72;4951222;28;20081;-74
2022/03/01 07:01:21;;;;;;;25.90;12.65;;;6.70;99.90;;;14.06;40.63;103142.38;4955049;28;20034;-74
2022/03/01 07:03:48;;;;;;;23.92;12.02;;;7.70;99.90;;;14.93;38.76;103160.63;4953783;28;20080;-74
2022/03/01 07:06:13;;;;;;;21.95;11.10;;;8.40;99.90;;;14.94;37.52;103179.13;4945533;28;20034;-74
2022/03/01 07:08:40;;;;;;;24.80;10.90;;;9.00;99.90;;;15.11;36.70;103178.69;4961328;28;20062;-73
2022/03/01 07:11:06;;;;;;;26.02;11.80;;;9.40;99.90;;;14.85;36.72;103242.19;4953757;28;20527;-73
2022/03/01 07:13:35;;;;;;;20.63;10.68;;;9.60;99.90;;;15.22;35.75;103252.72;4957494;28;20039;-74
2022/03/01 07:16:03;;;;;;;23.05;10.57;;;9.90;99.90;;;15.37;35.95;103249.66;4970072;28;20498;-73
2022/03/01 07:18:29;;;;;;;23.48;10.70;;;10.00;99.90;;;14.86;35.77;103258.06;4954381;28;20081;-73
2022/03/01 07:20:55;;;;;;;26.80;11.07;;;10.20;99.90;;;15.23;35.59;103288.13;4952585;28;20039;-73
2022/03/01 07:23:21;;;;;;;22.77;10.30;;;10.40;99.90;;;15.10;35.06;103287.56;4951413;28;20070;-74
2022/03/01 07:25:48;;;;;;;24.33;10.30;;;10.60;99.50;;;14.90;35.17;103370.25;4965441;28;20043;-73
2022/03/01 07:28:14;;;;;;;25.58;9.65;;;10.70;99.30;;;14.99;35.27;103351.50;4983214;28;20050;-73
2022/03/01 07:30:40;;;;;;;20.20;9.90;;;10.80;99.00;;;14.70;35.73;103338.88;4982615;28;20034;-73
2022/03/01 07:33:06;;;;;;;21.45;10.25;;;10.90;99.20;;;15.25;35.11;103321.69;4970911;28;20050;-74
2022/03/01 07:35:32;;;;;;;23.02;10.20;;;11.20;98.50;;;15.62;34.37;103326.03;4972435;28;20030;-74
2022/03/01 07:37:58;;;;;;;25.00;10.68;;;11.40;98.40;;;15.61;34.59;103342.88;4972254;28;20091;-73
2022/03/01 07:40:27;;;;;;;20.25;10.07;;;11.70;97.60;;;15.80;34.42;103335.31;4970083;28;20668;-73
2022/03/01 07:42:53;;;;;;;20.70;9.93;;;12.00;97.30;;;15.60;34.32;103343.78;4971970;28;20030;-74
2022/03/01 07:45:20;;;;;;;22.35;10.52;;;12.20;97.00;;;15.77;34.17;103348.69;4947791;28;20107;-73
2022/03/01 07:47:46;;;;;;;21.92;10.15;;;12.30;95.60;;;14.91;35.01;103349.00;4949327;28;20022;-73
2022/03/01 07:50:12;;;;;;;17.63;9.50;;;12.40;95.50;;;15.39;34.04;103347.88;4950784;28;20042;-73
2022/03/01 07:52:38;;;;;;;20.75;10.07;;;12.50;94.80;;;14.92;34.86;103350.78;4951174;28;20049;-73
2022/03/01 07:55:06;;;;;;;19.88;10.25;;;12.60;95.50;;;15.27;34.73;103351.72;4962898;28;20030;-74
2022/03/01 07:57:32;;;;;;;19.02;8.88;;;12.80;94.50;;;14.76;35.02;103357.31;4969368;28;20030;-73
2022/03/01 07:59:58;;;;;;;19.67;9.43;;;13.10;94.50;;;15.19;34.49;103369.59;4950550;28;20820;-74
2022/03/01 08:02:23;;;;;;;20.13;9.50;;;13.40;95.10;;;15.70;34.44;103358.59;4950340;28;20090;-74
2022/03/01 08:04:49;;;;;;;19.02;10.02;;;13.70;94.20;;;15.51;34.47;103359.97;4945949;28;20038;-74
2022/03/01 08:07:15;;;;;;;17.20;9.23;;;14.00;92.50;;;15.16;34.21;103369.66;4952668;28;20026;-74
2022/03/01 08:09:41;;;;;;;21.33;9.77;;;14.10;91.30;;;14.88;33.97;103369.41;4968843;28;20104;-73
2022/03/01 08:12:09;;;;;;;19.50;9.02;;;14.10;91.00;;;14.36;34.84;103372.28;4968562;28;20027;-74
2022/03/01 08:14:35;;;;;;;19.20;9.25;;;14.10;90.70;;;14.18;34.99;103362.03;4984344;28;20037;-74
2022/03/01 08:17:02;;;;;;;19.42;9.30;;;14.20;91.10;;;14.24;34.71;103363.72;4940478;28;20404;-74
2022/03/01 08:19:30;;;;;;;18.33;8.73;;;14.10;90.10;;;13.92;35.63;103355.47;4934205;28;20023;-74
2022/03/01 08:21:56;;;;;;;19.63;9.68;;;14.00;90.20;;;13.57;35.82;103364.06;4970379;28;20030;-73
2022/03/01 08:24:22;;;;;;;21.98;9.00;;;14.10;90.40;;;13.56;36.31;103367.59;4968608;28;20376;-74
2022/03/01 08:26:49;;;;;;;17.58;8.75;;;14.20;90.40;;;13.65;36.20;103364.81;4969359;28;20868;-73
2022/03/01 08:29:18;;;;;;;18.83;9.20;;;14.20;90.50;;;13.69;36.15;103368.25;4973902;28;20093;-74
2022/03/01 08:31:46;;;;;;;20.98;8.50;;;14.20;89.40;;;13.57;36.67;103371.13;4968078;28;20034;-74
2022/03/01 08:34:13;;;;;;;18.75;8.88;;;14.40;90.20;;;13.78;36.52;103373.41;4939886;28;20588;-74
2022/03/01 08:36:40;;;;;;;16.45;8.38;;;14.60;89.70;;;13.64;36.65;103381.56;4973582;28;20492;-74
2022/03/01 08:39:06;;;;;;;23.58;9.48;;;14.70;87.20;;;13.38;36.51;103378.50;4958443;28;20027;-73
2022/03/01 08:41:32;;;;;;;16.42;8.45;;;14.60;86.70;;;13.02;36.82;103368.41;4972599;28;20120;-76
2022/03/01 08:43:58;;;;;;;17.95;9.05;;;14.40;85.00;;;12.41;37.10;103372.75;4968611;28;20029;-73
2022/03/01 08:46:24;;;;;;;22.35;9.32;;;14.10;85.50;;;11.89;38.30;103358.38;4968202;28;20035;-74
2022/03/01 08:48:53;;;;;;;22.20;9.23;;;13.90;87.30;;;11.85;38.63;103351.31;4968658;28;20050;-73
2022/03/01 08:51:21;;;;;;;15.50;8.23;;;13.60;87.00;;;11.65;38.93;103353.31;4969261;28;20042;-78
2022/03/01 08:53:49;;;;;;;18.80;8.93;;;13.50;86.40;;;11.61;38.80;103357.72;4962166;28;20109;-73
2022/03/01 08:56:17;;;;;;;20.23;8.75;;;13.40;87.60;;;11.42;39.07;103349.06;4976071;28;20030;-75
2022/03/01 08:58:44;;;;;;;16.75;8.63;;;13.10;86.50;;;11.01;39.37;103352.03;4969294;28;20453;-76
2022/03/01 09:01:10;;;;;;;21.17;8.63;;;12.90;87.30;;;10.89;39.41;103334.56;4950100;28;20135;-74
2022/03/01 09:03:37;;;;;;;17.25;8.13;;;12.70;88.30;;;10.82;40.06;103336.34;4948046;28;20031;-74
2022/03/01 09:06:05;;;;;;;20.70;8.98;;;12.60;88.20;;;10.60;40.29;103338.19;4949272;28;20019;-74
2022/03/01 09:08:39;;;;;;;21.70;8.18;;;12.40;88.70;;;10.36;40.30;103328.66;4948070;28;20023;-74
2022/03/01 09:11:08;;;;;;;19.23;8.63;;;12.00;89.80;;;10.03;41.62;103319.97;4962216;28;20128;-74
2022/03/01 09:13:34;;;;;;;16.88;8.20;;;11.80;90.20;;;10.06;41.13;103313.81;4970402;28;20035;-74
2022/03/01 09:16:00;;;;;;;19.58;8.90;;;11.60;90.10;;;9.82;41.33;103318.25;4969293;28;20125;-73
2022/03/01 09:18:26;;;;;;;14.63;8.13;;;11.30;90.70;;;9.89;41.30;103319.13;4940022;28;20034;-74
2022/03/01 09:20:52;;;;;;;18.05;8.88;;;11.20;90.70;;;9.99;40.96;103315.59;4951496;28;20074;-74
2022/03/01 09:23:18;;;;;;;19.33;8.85;;;11.20;90.90;;;9.77;41.18;103309.50;4948779;28;20130;-74
2022/03/01 09:25:44;;;;;;;22.52;9.48;;;11.00;91.00;;;9.56;41.13;103305.16;4948777;28;20365;-74
2022/03/01 09:28:10;;;;;;;21.23;9.32;;;10.70;91.40;;;9.50;41.60;103302.53;4964019;28;20042;-74
2022/03/01 09:30:37;;;;;;;17.27;8.90;;;10.60;91.80;;;9.36;42.17;103291.16;4961096;28;20114;-73
2022/03/01 09:33:03;;;;;;;16.17;8.68;;;10.40;92.00;;;9.42;42.08;103299.06;4960900;28;20427;-73
2022/03/01 09:35:29;;;;;;;18.50;8.95;;;10.20;91.90;;;9.29;41.56;103299.91;4946335;28;20035;-74
2022/03/01 09:37:58;;;;;;;21.58;9.25;;;9.90;91.90;;;8.92;42.05;103297.25;4943437;28;20034;-74
2022/03/01 09:40:27;;;;;;;16.02;8.57;;;9.60;92.70;;;8.65;43.15;103290.22;4945450;28;20030;-74
2022/03/01 09:42:57;;;;;;;14.40;7.90;;;9.30;92.30;;;7.98;43.56;103297.78;4948191;28;20038;-74
2022/03/01 09:45:26;;;;;;;18.27;8.85;;;8.80;93.10;;;7.39;45.31;103290.44;4950827;28;20035;-74
2022/03/01 09:47:52;;;;;;;19.27;8.73;;;8.50;94.30;;;7.22;46.12;103276.31;4952650;28;20102;-74
2022/03/01 09:50:27;;;;;;;18.90;8.73;;;8.20;94.20;;;6.79;46.93;103282.03;4953708;28;20492;-74
2022/03/01 09:53:02;;;;;;;16.92;8.65;;;8.00;94.90;;;6.50;47.68;103281.72;4952087;28;20042;-74
2022/03/01 09:55:31;;;;;;;19.00;8.00;;;7.80;94.50;;;6.12;47.79;103276.91;4976626;28;20113;-74
2022/03/01 09:57:57;;;;;;;14.82;7.68;;;7.60;95.60;;;6.05;48.53;103275.09;4972643;28;20050;-74
2022/03/01 10:00:24;;;;;;;17.83;7.88;;;7.50;95.60;;;5.88;49.15;103273.06;4970220;28;20069;-74
2022/03/01 10:02:58;;;;;;;16.40;8.13;;;7.30;94.10;;;5.48;47.48;103263.78;4956164;28;20046;-74